Guapiara, Brazil
Current Conditions -  °F | °C
As of 10:00 PM on Tuesday 27 Jan 2015 (Local Time) from SBBI Reporting Station
Thunderstorm Thunderstorm  
Wind Chill: 72°   Ceiling: Unl
Heat Index: 72°   Visibility: 5mi
Dew Point: 66°   Wind: 14mph
Humidity: 83%   Direction: 10°N
Pressure: 30.06"   Gusts: NA
Location:  24.19°S, 48.54°W
Report Text: SBBI 280000Z 01012KT 8000 -TSRA FEW012 SCT035 FEW038CB 22/19 Q1018
Loading
Personal Weather Stations






























Interactive Weather Map New forecast layout! Learn more

10-Day Weather Forecast

Advertisements
Track Severe Weather on mobile